Time;durP1;ratioP1;P1;durP2;ratioP2;P2;SDS_P1;SDS_P2;PMS_P1;PMS_P2;Temp;Humidity;BMP_temperature;BMP_pressure;BME280_temperature;BME280_humidity;BME280_pressure;Samples;Min_cycle;Max_cycle;Signal;HPM_P1;HPM_P2
2022/05/07 00:02:14;;;;;;;42.90;30.88;;;14.60;81.30;;;;;;5090492;28;20412;-68
2022/05/07 00:04:40;;;;;;;50.15;32.63;;;14.60;81.40;;;;;;5090133;28;20048;-68
2022/05/07 00:07:07;;;;;;;42.03;31.15;;;14.50;81.30;;;;;;5090187;28;20070;-69
2022/05/07 00:09:33;;;;;;;45.83;30.23;;;14.50;81.50;;;;;;5047974;28;1188219;-68
2022/05/07 00:11:59;;;;;;;39.25;29.50;;;14.50;81.60;;;;;;5091401;28;20050;-68
2022/05/07 00:14:26;;;;;;;40.60;30.83;;;14.50;81.60;;;;;;5090782;28;20370;-68
2022/05/07 00:19:36;;;;;;;48.97;28.52;;;14.50;81.60;;;;;;5091271;28;20052;-69
2022/05/07 00:22:02;;;;;;;40.03;29.77;;;14.50;81.60;;;;;;5090906;28;20844;-69
2022/05/07 00:24:27;;;;;;;39.35;29.42;;;14.50;81.50;;;;;;5090910;28;20040;-69
2022/05/07 00:26:53;;;;;;;40.22;29.23;;;14.50;81.60;;;;;;5091161;28;20120;-68
2022/05/07 00:29:19;;;;;;;41.28;29.92;;;14.50;81.50;;;;;;5090996;28;20044;-68
2022/05/07 00:31:44;;;;;;;42.22;28.88;;;14.50;81.50;;;;;;5090811;28;20067;-69
2022/05/07 00:34:10;;;;;;;42.00;29.50;;;14.50;81.50;;;;;;5090315;28;20047;-69
2022/05/07 00:36:36;;;;;;;40.00;28.73;;;14.40;81.40;;;;;;5089915;28;20393;-68
2022/05/07 00:39:02;;;;;;;36.83;28.95;;;14.40;81.50;;;;;;5090729;28;20159;-69
2022/05/07 00:41:28;;;;;;;34.10;28.02;;;14.40;81.50;;;;;;5090698;28;20050;-69
2022/05/07 00:43:54;;;;;;;40.25;29.08;;;14.40;81.40;;;;;;5090547;28;20500;-68
2022/05/07 00:46:24;;;;;;;36.67;29.10;;;14.40;81.40;;;;;;5090752;28;20509;-70
2022/05/07 00:48:51;;;;;;;40.25;30.85;;;14.40;81.40;;;;;;5090522;28;20097;-68
2022/05/07 00:51:35;;;;;;;39.83;29.10;;;14.40;81.30;;;;;;5090530;28;20477;-68
2022/05/07 00:54:03;;;;;;;38.17;29.38;;;14.40;81.30;;;;;;5089321;28;20052;-68
2022/05/07 00:56:29;;;;;;;44.00;32.17;;;14.30;81.40;;;;;;5090035;28;20390;-68
2022/05/07 00:58:56;;;;;;;40.80;29.73;;;14.30;81.30;;;;;;5090517;28;20051;-68
2022/05/07 01:01:21;;;;;;;41.60;31.45;;;14.30;81.30;;;;;;5090211;28;20458;-68
2022/05/07 01:03:49;;;;;;;38.72;30.35;;;14.30;81.30;;;;;;5090532;28;20051;-68
2022/05/07 01:06:15;;;;;;;38.88;30.08;;;14.30;81.40;;;;;;5090345;28;20509;-67
2022/05/07 01:08:41;;;;;;;38.95;30.15;;;14.30;81.40;;;;;;5089824;28;20458;-68
2022/05/07 01:11:08;;;;;;;37.53;29.40;;;14.30;81.50;;;;;;5090221;28;20048;-68
2022/05/07 01:13:34;;;;;;;41.58;30.25;;;14.40;81.40;;;;;;5090401;28;20523;-67
2022/05/07 01:15:59;;;;;;;37.83;29.33;;;14.40;81.40;;;;;;5090079;28;20032;-68
2022/05/07 01:18:25;;;;;;;45.05;31.58;;;14.40;81.40;;;;;;5090147;28;20525;-68
2022/05/07 01:20:54;;;;;;;36.65;27.83;;;14.30;81.40;;;;;;5089754;28;20089;-68
2022/05/07 01:23:19;;;;;;;39.25;30.30;;;14.30;81.30;;;;;;5089895;28;20055;-68
2022/05/07 01:25:45;;;;;;;41.40;28.83;;;14.30;81.40;;;;;;5090225;28;20044;-67
2022/05/07 01:28:10;;;;;;;36.03;29.13;;;14.30;81.40;;;;;;5090034;28;20122;-68
2022/05/07 01:30:36;;;;;;;36.35;28.73;;;14.20;81.40;;;;;;5089976;28;20089;-69
2022/05/07 01:33:02;;;;;;;34.95;27.60;;;14.20;81.50;;;;;;5088440;28;20048;-68
2022/05/07 01:35:28;;;;;;;32.67;27.75;;;14.20;81.50;;;;;;5089990;28;20508;-68
2022/05/07 01:37:53;;;;;;;36.22;28.65;;;14.20;81.50;;;;;;5090079;28;20044;-68
2022/05/07 01:40:19;;;;;;;37.25;27.60;;;14.10;81.50;;;;;;5089883;28;20079;-67
2022/05/07 01:42:45;;;;;;;37.13;27.45;;;14.20;81.50;;;;;;5089801;28;20129;-68
2022/05/07 01:45:10;;;;;;;38.72;29.58;;;14.10;81.50;;;;;;5090239;28;20130;-68
2022/05/07 01:50:21;;;;;;;35.60;29.40;;;14.10;81.50;;;;;;5089761;28;20062;-67
2022/05/07 01:52:47;;;;;;;39.20;29.38;;;14.10;81.50;;;;;;5089732;28;20503;-68
2022/05/07 01:55:12;;;;;;;37.45;30.05;;;14.10;81.50;;;;;;5089743;28;20443;-68
2022/05/07 01:57:38;;;;;;;34.63;27.60;;;14.10;81.60;;;;;;5089371;28;20477;-68
2022/05/07 02:00:04;;;;;;;33.42;27.15;;;14.10;81.70;;;;;;5089541;28;20071;-68
2022/05/07 02:02:29;;;;;;;34.45;27.92;;;14.10;81.60;;;;;;5089930;28;20465;-68
2022/05/07 02:04:55;;;;;;;35.70;28.27;;;14.10;81.50;;;;;;5071625;28;20080;-68
2022/05/07 02:07:20;;;;;;;35.80;27.48;;;14.10;81.60;;;;;;5089476;28;20048;-68
2022/05/07 02:09:46;;;;;;;36.78;28.27;;;14.10;81.70;;;;;;5089186;28;20052;-68
2022/05/07 02:12:12;;;;;;;34.95;25.95;;;14.10;81.70;;;;;;5089130;28;20466;-68
2022/05/07 02:14:37;;;;;;;35.25;26.77;;;14.00;81.60;;;;;;5089468;28;20040;-68
2022/05/07 02:17:03;;;;;;;31.38;25.60;;;14.00;81.60;;;;;;5089357;28;20559;-67
2022/05/07 02:19:29;;;;;;;33.58;26.95;;;14.00;81.60;;;;;;5089165;28;20100;-68
2022/05/07 02:21:54;;;;;;;31.75;25.35;;;13.90;81.70;;;;;;5088119;28;20493;-68
2022/05/07 02:24:20;;;;;;;36.08;25.45;;;13.90;81.70;;;;;;5088992;28;20059;-68
2022/05/07 02:26:45;;;;;;;33.22;26.13;;;13.90;81.70;;;;;;5089188;28;20132;-69
2022/05/07 02:29:12;;;;;;;34.88;25.08;;;13.80;81.70;;;;;;5089229;28;20113;-68
2022/05/07 02:31:38;;;;;;;27.17;24.27;;;13.80;81.70;;;;;;5089429;28;20424;-69
2022/05/07 02:34:03;;;;;;;31.35;23.55;;;13.70;81.80;;;;;;5089202;28;20059;-69
2022/05/07 02:36:29;;;;;;;27.85;24.88;;;13.70;81.70;;;;;;5088996;28;20441;-68
2022/05/07 02:38:55;;;;;;;29.17;25.42;;;13.70;81.80;;;;;;5088129;28;20188;-69
2022/05/07 02:44:06;;;;;;;27.63;24.40;;;13.70;81.90;;;;;;5089241;28;20052;-69
2022/05/07 02:46:32;;;;;;;27.58;24.60;;;13.70;82.00;;;;;;5089287;28;20040;-68
2022/05/07 02:48:57;;;;;;;30.20;24.85;;;13.70;81.90;;;;;;5089181;28;20048;-69
2022/05/07 02:51:23;;;;;;;29.13;25.95;;;13.70;82.00;;;;;;5088832;28;20108;-68
2022/05/07 02:53:49;;;;;;;30.40;26.13;;;13.70;82.00;;;;;;5088786;28;20101;-69
2022/05/07 02:56:14;;;;;;;31.13;26.55;;;13.80;82.00;;;;;;5088903;28;20101;-68
2022/05/07 02:58:40;;;;;;;31.55;25.90;;;13.70;81.90;;;;;;5089214;28;20539;-69
2022/05/07 03:01:05;;;;;;;28.10;25.08;;;13.70;81.90;;;;;;5092165;28;20545;-69
2022/05/07 03:03:31;;;;;;;33.25;24.08;;;13.70;81.90;;;;;;5092301;28;20040;-69
2022/05/07 03:05:59;;;;;;;32.95;25.30;;;13.70;81.80;;;;;;5092674;28;20048;-68
2022/05/07 03:08:25;;;;;;;27.42;24.52;;;13.70;81.70;;;;;;5092474;28;20219;-69
2022/05/07 03:10:50;;;;;;;27.20;24.13;;;13.70;81.50;;;;;;5092698;28;20090;-69
2022/05/07 03:13:16;;;;;;;29.60;25.90;;;13.80;81.40;;;;;;5092373;28;20122;-69
2022/05/07 03:15:42;;;;;;;30.40;26.55;;;13.80;81.30;;;;;;5092125;28;20040;-69
2022/05/07 03:18:07;;;;;;;34.03;24.88;;;13.90;81.20;;;;;;5092452;28;20043;-69
2022/05/07 03:20:33;;;;;;;28.10;24.98;;;13.90;81.10;;;;;;5092367;28;20044;-68
2022/05/07 03:22:58;;;;;;;31.00;25.80;;;13.80;81.00;;;;;;5092282;28;20052;-69
2022/05/07 03:25:24;;;;;;;27.88;24.75;;;13.80;80.90;;;;;;5092176;28;20044;-68
2022/05/07 03:27:50;;;;;;;28.00;25.00;;;13.90;80.90;;;;;;5092325;28;20086;-69
2022/05/07 03:30:15;;;;;;;29.65;25.60;;;13.90;80.80;;;;;;5092203;28;20456;-69
2022/05/07 03:32:41;;;;;;;31.42;24.58;;;13.90;80.70;;;;;;5090989;28;20682;-69
2022/05/07 03:35:07;;;;;;;30.50;25.45;;;13.90;80.60;;;;;;5091974;28;20040;-69
2022/05/07 03:37:33;;;;;;;29.92;25.63;;;13.90;80.60;;;;;;5092066;28;20046;-68
2022/05/07 03:39:58;;;;;;;30.73;25.50;;;13.90;80.50;;;;;;5092266;28;20431;-68
2022/05/07 03:42:26;;;;;;;30.95;25.40;;;13.90;80.50;;;;;;5092117;28;20055;-69
2022/05/07 03:44:51;;;;;;;31.00;24.92;;;13.90;80.40;;;;;;5090892;28;20780;-69
2022/05/07 03:47:17;;;;;;;27.67;24.73;;;13.90;80.40;;;;;;5090854;28;20051;-68
2022/05/07 03:49:43;;;;;;;29.95;25.75;;;13.90;80.40;;;;;;5091646;28;20076;-68
2022/05/07 03:54:53;;;;;;;27.70;24.80;;;14.00;80.50;;;;;;5091829;28;20496;-68
2022/05/07 03:57:19;;;;;;;28.88;25.27;;;13.90;80.50;;;;;;5091611;28;20148;-68
2022/05/07 03:59:44;;;;;;;30.38;26.38;;;13.90;80.50;;;;;;5091702;28;20051;-69
2022/05/07 04:02:10;;;;;;;29.08;25.35;;;13.90;80.50;;;;;;5091363;28;20047;-69
2022/05/07 04:04:35;;;;;;;32.70;26.23;;;13.90;80.60;;;;;;5091546;28;20469;-69
2022/05/07 04:07:02;;;;;;;30.00;25.30;;;13.90;80.70;;;;;;5091387;28;20089;-68
2022/05/07 04:09:28;;;;;;;29.83;25.40;;;13.90;80.80;;;;;;5091105;28;20420;-69
2022/05/07 04:11:54;;;;;;;30.80;25.75;;;13.90;80.80;;;;;;5090208;28;20047;-68
2022/05/07 04:14:19;;;;;;;31.48;25.25;;;13.90;80.90;;;;;;5091036;28;20043;-68
2022/05/07 04:16:46;;;;;;;30.10;26.85;;;13.90;81.00;;;;;;5091035;28;20079;-68
2022/05/07 04:19:12;;;;;;;34.58;26.67;;;13.90;81.10;;;;;;5089433;28;20044;-67
2022/05/07 04:21:38;;;;;;;29.92;25.33;;;13.90;81.20;;;;;;5091208;28;20055;-67
2022/05/07 04:24:07;;;;;;;30.50;27.23;;;13.90;81.30;;;;;;5091101;28;20572;-68
2022/05/07 04:26:33;;;;;;;35.33;27.67;;;13.90;81.30;;;;;;5090776;28;20194;-68
2022/05/07 04:28:59;;;;;;;31.50;26.02;;;13.90;81.40;;;;;;5091105;28;20119;-68
2022/05/07 04:31:25;;;;;;;33.25;26.95;;;13.90;81.40;;;;;;5090484;28;20450;-67
2022/05/07 04:33:51;;;;;;;29.63;25.35;;;13.90;81.60;;;;;;5089550;28;20051;-69
2022/05/07 04:36:16;;;;;;;31.00;27.65;;;14.00;81.60;;;;;;5090782;28;20059;-68
2022/05/07 04:38:42;;;;;;;32.75;27.45;;;13.90;81.60;;;;;;5090839;28;20076;-69
2022/05/07 04:41:07;;;;;;;30.85;26.98;;;13.90;81.70;;;;;;5090236;28;20093;-68
2022/05/07 04:43:33;;;;;;;33.67;27.42;;;13.90;81.80;;;;;;5090346;28;20040;-68
2022/05/07 04:45:58;;;;;;;30.15;27.00;;;14.00;81.90;;;;;;5090705;28;20602;-68
2022/05/07 04:48:24;;;;;;;30.08;26.85;;;14.00;81.90;;;;;;5089321;28;20128;-69
2022/05/07 04:50:50;;;;;;;34.40;27.05;;;14.00;81.90;;;;;;5090088;28;20051;-68
2022/05/07 04:53:15;;;;;;;33.08;29.42;;;14.00;82.00;;;;;;5090170;28;20420;-69
2022/05/07 04:55:41;;;;;;;30.95;26.40;;;14.00;82.00;;;;;;5090612;28;20113;-69
2022/05/07 04:58:06;;;;;;;31.02;26.52;;;13.90;82.00;;;;;;5089166;28;20052;-69
2022/05/07 05:00:32;;;;;;;32.67;28.20;;;14.00;82.10;;;;;;5090218;28;20126;-69
2022/05/07 05:02:58;;;;;;;35.35;27.65;;;14.00;82.10;;;;;;5090469;28;20044;-69
2022/05/07 05:05:25;;;;;;;31.65;26.35;;;13.90;82.10;;;;;;5089832;28;20051;-68
2022/05/07 05:07:51;;;;;;;31.77;28.40;;;13.90;82.00;;;;;;5090432;28;20044;-68
2022/05/07 05:10:18;;;;;;;35.38;27.55;;;13.90;82.10;;;;;;5088570;28;20059;-69
2022/05/07 05:12:43;;;;;;;32.08;27.27;;;13.90;82.10;;;;;;5090295;28;20445;-68
2022/05/07 05:15:09;;;;;;;33.08;26.98;;;13.90;82.10;;;;;;5090355;28;20082;-69
2022/05/07 05:17:37;;;;;;;31.95;27.58;;;13.80;82.10;;;;;;5088532;28;20105;-69
2022/05/07 05:20:04;;;;;;;31.75;27.58;;;13.90;82.10;;;;;;5088736;28;20058;-69
2022/05/07 05:22:30;;;;;;;30.77;26.27;;;13.90;82.20;;;;;;5088610;28;20548;-69
2022/05/07 05:24:55;;;;;;;31.60;26.60;;;14.00;82.20;;;;;;5089821;28;20051;-69
2022/05/07 05:27:21;;;;;;;29.67;26.27;;;14.00;82.20;;;;;;5089895;28;20040;-69
2022/05/07 05:29:47;;;;;;;31.80;26.02;;;14.00;82.20;;;;;;5090193;28;20131;-68
2022/05/07 05:32:17;;;;;;;30.00;26.73;;;14.10;82.20;;;;;;5089753;28;20131;-68
2022/05/07 05:34:45;;;;;;;32.28;26.95;;;14.10;82.30;;;;;;5089921;28;20048;-69
2022/05/07 05:37:11;;;;;;;31.80;26.80;;;14.10;82.40;;;;;;5089339;28;20048;-68
2022/05/07 05:39:37;;;;;;;29.85;26.77;;;14.20;82.60;;;;;;5089612;28;20497;-67
2022/05/07 05:42:03;;;;;;;32.60;28.25;;;14.20;82.70;;;;;;5089697;28;20040;-68
2022/05/07 05:44:28;;;;;;;36.08;27.45;;;14.20;82.70;;;;;;5088417;28;20048;-68
2022/05/07 05:46:55;;;;;;;33.13;27.20;;;14.20;82.70;;;;;;5089763;28;20050;-69
2022/05/07 05:49:20;;;;;;;31.20;27.55;;;14.20;82.70;;;;;;5089597;28;20092;-68
2022/05/07 05:51:46;;;;;;;33.70;28.42;;;14.20;82.70;;;;;;5089411;28;20044;-68
2022/05/07 05:54:12;;;;;;;31.85;27.90;;;14.20;82.60;;;;;;5089543;28;20044;-68
2022/05/07 05:56:37;;;;;;;32.78;27.52;;;14.30;82.60;;;;;;5088364;28;20047;-68
2022/05/07 05:59:03;;;;;;;30.23;26.75;;;14.30;82.50;;;;;;5089562;28;20036;-68
2022/05/07 06:01:28;;;;;;;31.85;26.90;;;14.30;82.40;;;;;;5089251;28;20402;-68
2022/05/07 06:03:54;;;;;;;34.55;28.30;;;14.30;82.30;;;;;;5089509;28;20036;-68
2022/05/07 06:06:20;;;;;;;32.38;28.63;;;14.30;82.20;;;;;;5089399;28;20055;-69
2022/05/07 06:08:46;;;;;;;34.30;27.30;;;14.30;82.00;;;;;;5088801;28;20056;-68
2022/05/07 06:11:12;;;;;;;29.90;26.70;;;14.40;81.90;;;;;;5088116;28;20493;-68
2022/05/07 06:13:38;;;;;;;34.22;28.17;;;14.50;81.60;;;;;;5089536;28;20680;-68
2022/05/07 06:16:04;;;;;;;31.33;27.77;;;14.50;81.40;;;;;;5089235;28;20043;-69
2022/05/07 06:18:29;;;;;;;33.45;27.92;;;14.50;81.30;;;;;;5089480;28;20048;-69
2022/05/07 06:20:55;;;;;;;34.05;28.17;;;14.50;81.40;;;;;;5089335;28;20044;-69
2022/05/07 06:23:21;;;;;;;33.53;28.50;;;14.50;81.10;;;;;;5088958;28;20421;-68
2022/05/07 06:28:30;;;;;;;35.30;29.92;;;14.50;81.10;;;;;;5089100;28;20056;-68
2022/05/07 06:30:56;;;;;;;38.00;28.27;;;14.40;81.10;;;;;;5087551;28;20092;-68
2022/05/07 06:33:22;;;;;;;40.05;31.80;;;14.40;81.10;;;;;;5089010;28;20401;-69
2022/05/07 06:35:48;;;;;;;46.20;35.17;;;14.50;81.20;;;;;;5091083;28;20040;-68
2022/05/07 06:38:13;;;;;;;49.10;37.42;;;14.50;81.30;;;;;;5092822;28;20055;-69
2022/05/07 06:40:39;;;;;;;52.05;37.03;;;14.60;81.20;;;;;;5093098;28;20044;-69
2022/05/07 06:43:06;;;;;;;50.83;39.05;;;14.70;81.40;;;;;;5093059;28;20044;-68
2022/05/07 06:45:32;;;;;;;57.03;40.15;;;14.80;81.50;;;;;;5092311;28;20044;-69
2022/05/07 06:47:57;;;;;;;59.80;40.20;;;14.80;81.50;;;;;;5074719;28;20072;-69
2022/05/07 06:50:23;;;;;;;61.25;41.30;;;14.90;81.70;;;;;;5093031;28;20457;-69
2022/05/07 06:52:49;;;;;;;67.18;44.00;;;14.90;81.80;;;;;;5092799;28;20048;-69
2022/05/07 06:55:18;;;;;;;61.33;42.70;;;15.00;81.80;;;;;;5092726;28;20044;-69
2022/05/07 06:57:45;;;;;;;62.30;42.08;;;15.00;81.50;;;;;;5092401;28;20056;-69
2022/05/07 07:00:12;;;;;;;59.72;41.08;;;15.00;81.40;;;;;;5092291;28;20425;-69
2022/05/07 07:02:39;;;;;;;58.08;40.42;;;15.10;81.40;;;;;;5092802;28;20122;-69
2022/05/07 07:05:05;;;;;;;62.22;40.08;;;15.10;81.20;;;;;;5092754;28;20089;-69
2022/05/07 07:07:31;;;;;;;50.83;37.47;;;15.20;81.00;;;;;;5092337;28;20093;-68
2022/05/07 07:09:57;;;;;;;56.85;38.45;;;15.30;80.90;;;;;;5091709;28;20872;-69
2022/05/07 07:12:23;;;;;;;50.20;38.05;;;15.40;80.60;;;;;;5091404;28;20109;-69
2022/05/07 07:14:49;;;;;;;52.35;38.25;;;15.40;80.50;;;;;;5092601;28;20040;-69
2022/05/07 07:17:16;;;;;;;52.67;37.20;;;15.50;80.20;;;;;;5092001;28;20083;-69
2022/05/07 07:19:42;;;;;;;48.72;37.03;;;15.50;79.80;;;;;;5092355;28;20434;-68
2022/05/07 07:22:08;;;;;;;54.88;38.72;;;15.50;79.50;;;;;;5092363;28;20146;-68
2022/05/07 07:24:34;;;;;;;53.50;40.92;;;15.50;79.40;;;;;;5092243;28;20040;-69
2022/05/07 07:26:59;;;;;;;65.15;39.75;;;15.50;79.50;;;;;;5092372;28;20130;-69
2022/05/07 07:29:25;;;;;;;53.28;39.58;;;15.50;79.50;;;;;;5090480;28;20404;-69
2022/05/07 07:31:51;;;;;;;51.50;39.15;;;15.50;79.40;;;;;;5092380;28;20055;-69
2022/05/07 07:34:17;;;;;;;54.97;39.38;;;15.50;79.50;;;;;;5073849;28;20524;-69
2022/05/07 07:36:46;;;;;;;57.20;40.17;;;15.50;79.60;;;;;;5092009;28;20055;-69
2022/05/07 07:39:12;;;;;;;45.92;35.15;;;15.50;79.60;;;;;;5092020;28;20408;-68
2022/05/07 07:41:37;;;;;;;55.47;37.25;;;15.60;79.70;;;;;;5090709;28;20055;-69
2022/05/07 07:44:03;;;;;;;58.60;38.50;;;15.60;79.60;;;;;;5091613;28;20048;-69
2022/05/07 07:49:13;;;;;;;56.55;38.50;;;15.70;79.40;;;;;;5091728;28;20048;-68
2022/05/07 07:51:39;;;;;;;53.38;36.60;;;15.80;79.30;;;;;;5090541;28;20104;-68
2022/05/07 07:54:05;;;;;;;52.58;35.85;;;15.80;78.90;;;;;;5091762;28;20044;-69
2022/05/07 07:56:30;;;;;;;52.17;36.97;;;15.90;78.70;;;;;;5091316;28;20048;-68
2022/05/07 07:58:56;;;;;;;51.13;35.13;;;15.90;78.50;;;;;;5091936;28;20983;-69
2022/05/07 08:01:22;;;;;;;47.35;33.70;;;16.00;78.40;;;;;;5091833;28;20094;-68
2022/05/07 08:03:48;;;;;;;47.67;32.88;;;16.10;78.40;;;;;;5091528;28;20451;-69
2022/05/07 08:06:13;;;;;;;41.88;29.33;;;16.10;78.10;;;;;;5091273;28;20043;-68
2022/05/07 08:11:44;;;;;;;44.53;31.00;;;16.20;77.10;;;;;;5091014;28;20044;-68
2022/05/07 08:14:13;;;;;;;46.47;31.88;;;16.20;76.90;;;;;;5091338;28;20036;-69
2022/05/07 08:16:39;;;;;;;42.53;32.20;;;16.30;76.80;;;;;;5091132;28;20059;-69
2022/05/07 08:19:05;;;;;;;41.65;30.60;;;16.30;76.50;;;;;;5091159;28;20044;-68
2022/05/07 08:21:31;;;;;;;47.10;30.95;;;16.40;76.40;;;;;;5072715;28;20047;-69
2022/05/07 08:23:57;;;;;;;50.55;32.70;;;16.50;76.10;;;;;;5090761;28;20044;-69
2022/05/07 08:26:22;;;;;;;50.88;34.45;;;16.50;75.80;;;;;;5091074;28;20090;-69
2022/05/07 08:28:51;;;;;;;46.28;31.38;;;16.60;75.80;;;;;;5090909;28;20123;-68
2022/05/07 08:31:18;;;;;;;47.75;32.65;;;16.60;75.60;;;;;;5090855;28;20201;-69
2022/05/07 08:33:44;;;;;;;50.15;33.17;;;16.60;75.50;;;;;;5089569;28;20446;-68
2022/05/07 08:36:10;;;;;;;54.05;36.80;;;16.60;75.50;;;;;;5090892;28;20063;-69
2022/05/07 08:38:37;;;;;;;53.75;37.75;;;16.70;75.40;;;;;;5090203;28;20074;-69
2022/05/07 08:41:03;;;;;;;51.10;36.92;;;16.80;75.50;;;;;;5090768;28;20050;-69
2022/05/07 08:43:34;;;;;;;50.05;37.28;;;16.90;75.60;;;;;;5089474;28;20119;-69
2022/05/07 08:46:00;;;;;;;51.08;37.25;;;16.90;75.50;;;;;;5090706;28;20047;-69
2022/05/07 08:48:26;;;;;;;51.63;36.97;;;16.90;75.50;;;;;;5089501;28;20048;-69
2022/05/07 08:50:53;;;;;;;53.03;38.72;;;16.90;75.50;;;;;;5090167;28;20083;-69
2022/05/07 08:53:20;;;;;;;46.85;33.80;;;16.90;75.50;;;;;;5090392;28;20047;-68
2022/05/07 08:55:51;;;;;;;45.22;33.05;;;16.90;75.30;;;;;;5090476;28;20051;-68
2022/05/07 08:58:17;;;;;;;45.90;33.40;;;16.90;75.00;;;;;;5089567;28;20044;-68
2022/05/07 09:00:45;;;;;;;47.75;32.60;;;16.90;74.70;;;;;;5089282;28;20048;-69
2022/05/07 09:03:15;;;;;;;45.15;30.42;;;16.90;74.80;;;;;;5090405;28;20040;-68
2022/05/07 09:05:42;;;;;;;42.47;30.52;;;16.90;74.80;;;;;;5088969;28;20051;-68
2022/05/07 09:08:10;;;;;;;47.33;32.72;;;16.90;74.40;;;;;;5090382;28;20048;-69
2022/05/07 09:10:38;;;;;;;46.63;32.50;;;16.90;74.30;;;;;;5089800;28;20405;-69
2022/05/07 09:13:16;;;;;;;54.60;34.70;;;16.90;74.10;;;;;;5088993;28;20047;-68
2022/05/07 09:15:50;;;;;;;52.50;36.20;;;16.90;74.00;;;;;;5090272;28;20044;-68
2022/05/07 09:18:20;;;;;;;51.55;35.75;;;17.00;74.30;;;;;;5090183;28;20631;-69
2022/05/07 09:21:27;;;;;;;51.33;37.10;;;16.80;74.40;;;;;;5090193;28;20047;-68
2022/05/07 09:23:58;;;;;;;49.78;33.88;;;16.90;74.50;;;;;;5090082;28;20040;-68
2022/05/07 09:26:35;;;;;;;50.15;32.80;;;16.80;74.80;;;;;;5090214;28;20048;-69
2022/05/07 09:29:03;;;;;;;43.75;30.00;;;16.80;74.50;;;;;;5089723;28;20105;-68
2022/05/07 09:31:33;;;;;;;43.65;30.92;;;16.80;74.60;;;;;;5089907;28;20048;-69
2022/05/07 09:36:53;;;;;;;45.50;30.35;;;16.70;74.30;;;;;;5089842;28;20044;-69
2022/05/07 09:39:18;;;;;;;47.72;31.13;;;16.60;74.20;;;;;;5089795;28;20101;-69
2022/05/07 09:41:44;;;;;;;47.10;31.23;;;16.80;74.30;;;;;;5089375;28;20131;-68
2022/05/07 09:44:11;;;;;;;39.97;28.02;;;16.80;74.10;;;;;;5089824;28;20040;-68
2022/05/07 09:46:38;;;;;;;43.97;28.23;;;16.80;74.00;;;;;;5089525;28;20408;-68
2022/05/07 09:49:05;;;;;;;39.67;26.00;;;16.90;73.90;;;;;;5089651;28;20048;-69
2022/05/07 09:51:31;;;;;;;40.85;26.98;;;16.90;73.70;;;;;;5089388;28;20036;-69
2022/05/07 09:59:27;;;;;;;51.80;33.13;;;17.00;73.30;;;;;;5089685;28;20048;-69
2022/05/07 10:01:59;;;;;;;45.25;30.70;;;17.00;73.40;;;;;;5089513;28;20606;-68
2022/05/07 10:05:09;;;;;;;46.53;28.45;;;17.00;73.20;;;;;;5089497;28;20040;-68
2022/05/07 10:07:40;;;;;;;41.25;27.13;;;16.80;73.00;;;;;;5078598;28;20060;-69
2022/05/07 10:10:27;;;;;;;42.88;26.75;;;16.70;73.80;;;;;;5092930;28;20189;-69
2022/05/07 10:12:56;;;;;;;43.42;26.05;;;16.60;74.10;;;;;;5093577;28;20087;-69
2022/05/07 10:15:26;;;;;;;36.47;24.77;;;16.50;74.30;;;;;;5092242;28;20036;-69
2022/05/07 10:18:01;;;;;;;46.35;29.48;;;16.50;74.50;;;;;;5093375;28;20134;-70
2022/05/07 10:20:33;;;;;;;39.10;28.98;;;16.50;74.80;;;;;;5093610;28;20052;-69
2022/05/07 10:22:59;;;;;;;51.92;34.30;;;16.50;75.10;;;;;;5093440;28;20408;-69
2022/05/07 10:25:25;;;;;;;48.28;33.55;;;16.50;75.40;;;;;;5093288;28;20051;-69
2022/05/07 10:27:51;;;;;;;55.38;36.50;;;16.50;75.30;;;;;;5093307;28;20040;-69
2022/05/07 10:30:22;;;;;;;55.42;37.08;;;16.50;75.20;;;;;;5093118;28;20102;-70
2022/05/07 10:33:01;;;;;;;61.65;37.60;;;16.60;75.10;;;;;;5093241;28;20119;-69
2022/05/07 10:35:47;;;;;;;59.15;41.60;;;16.60;74.60;;;;;;5091928;28;20562;-69
2022/05/07 10:38:23;;;;;;;53.45;35.75;;;16.60;74.50;;;;;;5092778;28;20844;-69
2022/05/07 10:41:00;;;;;;;59.38;38.58;;;16.60;74.90;;;;;;5093236;28;20083;-69
2022/05/07 10:43:38;;;;;;;55.10;36.17;;;16.70;75.00;;;;;;5091755;28;20047;-69
2022/05/07 10:46:16;;;;;;;49.65;33.13;;;16.80;74.80;;;;;;5092684;28;20528;-69
2022/05/07 10:49:09;;;;;;;43.42;29.15;;;16.80;74.50;;;;;;5092906;28;20051;-69
2022/05/07 10:51:50;;;;;;;39.65;25.52;;;16.80;74.00;;;;;;5091530;28;21739;-69
2022/05/07 10:54:19;;;;;;;27.10;16.42;;;16.90;74.20;;;;;;5092379;28;20096;-69
2022/05/07 10:56:56;;;;;;;21.58;13.15;;;17.00;73.50;;;;;;5092798;28;20043;-69
2022/05/07 10:59:24;;;;;;;18.30;12.80;;;17.00;72.60;;;;;;5092358;28;20044;-69
2022/05/07 11:01:50;;;;;;;20.95;12.23;;;17.00;72.10;;;;;;5092814;28;20055;-69
2022/05/07 11:04:22;;;;;;;19.25;11.98;;;17.10;71.90;;;;;;5092680;28;20040;-69
2022/05/07 11:06:48;;;;;;;17.00;11.13;;;17.10;71.20;;;;;;5092933;28;20493;-69
2022/05/07 11:09:25;;;;;;;19.38;9.73;;;17.20;70.60;;;;;;5092650;28;20500;-69
2022/05/07 11:11:54;;;;;;;17.58;11.20;;;17.30;69.50;;;;;;5091086;28;20051;-71
2022/05/07 11:14:26;;;;;;;19.60;11.98;;;17.30;69.30;;;;;;5092617;28;20040;-69
2022/05/07 11:16:53;;;;;;;15.95;12.68;;;17.30;69.60;;;;;;5092316;28;20048;-69
2022/05/07 11:19:27;;;;;;;22.15;13.98;;;17.20;70.80;;;;;;5092355;28;20040;-69
2022/05/07 11:21:53;;;;;;;18.30;13.13;;;17.30;71.00;;;;;;5091778;28;20054;-69
2022/05/07 11:24:20;;;;;;;20.92;13.70;;;17.50;71.10;;;;;;5092309;28;20040;-69
2022/05/07 11:26:54;;;;;;;21.95;13.88;;;17.50;70.90;;;;;;5092039;28;20052;-69
2022/05/07 11:29:20;;;;;;;22.73;14.30;;;17.60;70.70;;;;;;5092170;28;20048;-69
2022/05/07 11:32:07;;;;;;;24.67;15.07;;;17.70;70.30;;;;;;5092185;28;20043;-69
2022/05/07 11:34:42;;;;;;;24.13;16.23;;;17.70;69.60;;;;;;5092096;28;20071;-69
2022/05/07 11:37:19;;;;;;;24.42;15.27;;;17.80;69.80;;;;;;5092141;28;20462;-70
2022/05/07 11:39:49;;;;;;;24.08;16.50;;;17.90;69.40;;;;;;5092175;28;20052;-69
2022/05/07 11:42:34;;;;;;;24.88;15.63;;;17.80;69.80;;;;;;5092109;28;20059;-69
2022/05/07 11:48:00;;;;;;;23.77;16.38;;;17.90;69.40;;;;;;5091948;28;20087;-69
2022/05/07 11:50:31;;;;;;;23.23;15.77;;;17.90;69.20;;;;;;5091566;28;20054;-68
2022/05/07 11:53:09;;;;;;;24.05;16.05;;;17.90;69.20;;;;;;5091758;28;20523;-68
2022/05/07 11:55:34;;;;;;;22.77;14.20;;;18.00;69.20;;;;;;5091704;28;20148;-69
2022/05/07 11:58:16;;;;;;;26.67;15.93;;;18.10;68.50;;;;;;5091753;28;20040;-69
2022/05/07 12:00:43;;;;;;;21.55;14.30;;;18.30;66.60;;;;;;5091112;28;20040;-69
2022/05/07 12:03:09;;;;;;;18.05;12.32;;;18.30;67.30;;;;;;5091509;28;20154;-69
2022/05/07 12:05:43;;;;;;;21.15;13.18;;;18.40;67.40;;;;;;5091663;28;20134;-69
2022/05/07 12:08:19;;;;;;;21.20;13.52;;;18.40;67.00;;;;;;5090328;28;20504;-69
2022/05/07 12:10:47;;;;;;;21.73;13.48;;;18.30;67.40;;;;;;5091218;28;20047;-69
2022/05/07 12:13:17;;;;;;;18.80;12.13;;;18.20;67.50;;;;;;5091306;28;20056;-69
2022/05/07 12:18:30;;;;;;;13.85;10.57;;;18.10;67.60;;;;;;5091275;28;20047;-70
2022/05/07 12:20:57;;;;;;;17.58;11.27;;;18.00;67.50;;;;;;5091051;28;20044;-69
2022/05/07 12:31:37;;;;;;;21.55;12.80;;;17.90;67.60;;;;;;5089914;28;20048;-69
2022/05/07 12:34:04;;;;;;;19.48;11.93;;;17.90;68.00;;;;;;5090400;28;20063;-69
2022/05/07 12:36:31;;;;;;;17.05;10.23;;;18.00;68.10;;;;;;5090964;28;20048;-68
2022/05/07 12:38:59;;;;;;;15.25;9.52;;;18.10;67.70;;;;;;5090920;28;20097;-69
2022/05/07 12:41:26;;;;;;;17.13;9.70;;;18.10;66.40;;;;;;5090735;28;20047;-69
2022/05/07 12:43:52;;;;;;;15.63;10.30;;;18.00;65.80;;;;;;5090688;28;20088;-68
2022/05/07 12:46:19;;;;;;;16.08;10.75;;;18.00;66.20;;;;;;5090604;28;20086;-68
2022/05/07 12:48:45;;;;;;;17.85;11.05;;;18.00;66.30;;;;;;5090409;28;20505;-68
2022/05/07 12:51:10;;;;;;;13.45;10.32;;;17.90;66.40;;;;;;5090712;28;20059;-68
2022/05/07 12:53:36;;;;;;;15.52;10.70;;;17.80;66.70;;;;;;5090627;28;20420;-69
2022/05/07 12:56:03;;;;;;;19.05;10.55;;;17.80;66.90;;;;;;5090465;28;20390;-69
2022/05/07 12:58:29;;;;;;;17.27;10.82;;;17.80;67.20;;;;;;5090208;28;20051;-68
2022/05/07 13:00:55;;;;;;;19.95;11.52;;;17.80;67.50;;;;;;5089705;28;20048;-69
2022/05/07 13:03:21;;;;;;;15.75;11.48;;;17.90;67.20;;;;;;5090259;28;20507;-69
2022/05/07 13:05:47;;;;;;;20.40;13.45;;;17.90;67.30;;;;;;5090468;28;20032;-69
2022/05/07 13:08:14;;;;;;;14.85;10.40;;;17.80;67.40;;;;;;5090311;28;20459;-69
2022/05/07 13:10:40;;;;;;;16.13;10.52;;;17.90;67.30;;;;;;5089913;28;20110;-69
2022/05/07 13:13:06;;;;;;;16.20;10.85;;;18.10;67.60;;;;;;5088943;28;20501;-68